createdAt,value
2023-04-07T00:01:14.301Z,76.30
2023-04-07T00:03:48.141Z,76.40
2023-04-07T00:06:21.901Z,76.30
2023-04-07T00:08:55.604Z,76.60
2023-04-07T00:11:30.230Z,76.60
2023-04-07T00:14:04.505Z,75.90
2023-04-07T00:16:40.068Z,76.60
2023-04-07T00:19:13.832Z,76.70
2023-04-07T00:21:48.523Z,76.30
2023-04-07T00:24:33.431Z,76.30
2023-04-07T00:27:08.448Z,76.10
2023-04-07T00:29:42.598Z,76.00
2023-04-07T00:32:19.259Z,76.50
2023-04-07T00:34:52.921Z,76.70
2023-04-07T00:37:27.215Z,77.20
2023-04-07T00:40:01.229Z,77.00
2023-04-07T00:42:35.930Z,77.30
2023-04-07T00:45:11.830Z,77.40
2023-04-07T00:47:48.009Z,78.10
2023-04-07T00:50:22.832Z,77.70
2023-04-07T00:52:58.689Z,77.40
2023-04-07T00:55:32.955Z,77.40
2023-04-07T00:58:07.868Z,77.30
2023-04-07T01:00:46.105Z,77.50
2023-04-07T01:03:25.189Z,77.50
2023-04-07T01:06:01.131Z,77.40
2023-04-07T01:08:37.671Z,77.50
2023-04-07T01:11:13.841Z,77.50
2023-04-07T01:13:52.786Z,77.50
2023-04-07T01:16:40.949Z,77.70
2023-04-07T01:19:20.761Z,77.20
2023-04-07T01:22:00.855Z,77.70
2023-04-07T01:24:58.075Z,77.50
2023-04-07T01:27:39.230Z,77.00
2023-04-07T01:30:16.880Z,76.10
2023-04-07T01:32:55.291Z,75.20
2023-04-07T01:35:31.652Z,75.30
2023-04-07T01:38:07.292Z,74.70
2023-04-07T01:40:43.123Z,73.60
2023-04-07T01:43:17.951Z,73.10
2023-04-07T01:45:55.676Z,72.20
2023-04-07T01:48:30.687Z,71.10
2023-04-07T01:51:05.237Z,71.70
2023-04-07T01:53:40.391Z,72.70
2023-04-07T01:56:15.079Z,73.20
2023-04-07T01:58:52.378Z,72.80
2023-04-07T02:01:32.225Z,73.40
2023-04-07T02:04:09.684Z,72.90
2023-04-07T02:06:48.463Z,73.50
2023-04-07T02:09:26.446Z,73.90
2023-04-07T02:12:02.022Z,73.50
2023-04-07T02:14:40.625Z,73.70
2023-04-07T02:17:22.875Z,73.70
2023-04-07T02:19:57.612Z,73.70
2023-04-07T02:22:33.163Z,73.30
2023-04-07T02:25:06.977Z,73.20
2023-04-07T02:27:41.429Z,73.30
2023-04-07T02:30:16.851Z,73.20
2023-04-07T02:32:53.869Z,72.80
2023-04-07T02:35:28.018Z,72.60
2023-04-07T02:38:02.187Z,73.10
2023-04-07T02:40:38.240Z,71.20
2023-04-07T02:43:12.298Z,71.70
2023-04-07T02:45:46.430Z,71.10
2023-04-07T02:48:23.546Z,70.50
2023-04-07T02:50:58.640Z,71.30
2023-04-07T02:53:32.580Z,71.50
2023-04-07T02:56:06.432Z,70.80
2023-04-07T02:58:40.406Z,70.10
2023-04-07T03:01:15.350Z,69.60
2023-04-07T03:03:51.880Z,70.20
2023-04-07T03:06:30.050Z,69.10
2023-04-07T03:09:13.079Z,68.80
2023-04-07T03:11:54.260Z,68.70
2023-04-07T03:14:28.578Z,69.40
2023-04-07T03:17:02.806Z,68.60
2023-04-07T03:19:40.449Z,68.60
2023-04-07T03:22:15.622Z,68.20
2023-04-07T03:24:55.029Z,69.10
2023-04-07T03:27:31.310Z,68.00
2023-04-07T03:30:05.802Z,67.80
2023-04-07T03:32:40.206Z,66.60
2023-04-07T03:35:17.127Z,67.80
2023-04-07T03:37:51.309Z,67.40
2023-04-07T03:40:26.695Z,67.00
2023-04-07T03:43:01.046Z,67.70
2023-04-07T03:45:37.760Z,67.80
2023-04-07T03:48:14.085Z,68.20
2023-04-07T03:51:03.600Z,68.40
2023-04-07T03:53:39.470Z,68.30
2023-04-07T03:56:33.112Z,69.00
2023-04-07T03:59:06.996Z,69.90
2023-04-07T04:01:46.831Z,68.70
2023-04-07T04:04:23.103Z,67.70
2023-04-07T04:07:00.406Z,67.80
2023-04-07T04:10:02.953Z,68.40
2023-04-07T04:12:43.328Z,68.20
2023-04-07T04:15:20.263Z,68.00
2023-04-07T04:17:55.332Z,67.90
2023-04-07T04:20:30.985Z,67.90
2023-04-07T04:23:07.072Z,68.50
2023-04-07T04:25:43.230Z,68.10
2023-04-07T04:28:18.745Z,68.20
2023-04-07T04:30:52.640Z,67.50
2023-04-07T04:33:27.307Z,67.70
2023-04-07T04:36:05.016Z,67.90
2023-04-07T04:38:40.726Z,67.70
2023-04-07T04:41:22.504Z,67.60
2023-04-07T04:43:58.085Z,67.80
2023-04-07T04:46:33.973Z,67.90
2023-04-07T04:49:08.953Z,68.20
2023-04-07T04:51:43.903Z,67.90
2023-04-07T04:54:25.149Z,69.10
2023-04-07T04:57:00.368Z,69.90
2023-04-07T04:59:35.035Z,70.80
2023-04-07T05:02:10.561Z,70.30
2023-04-07T05:04:45.188Z,70.80
2023-04-07T05:07:30.394Z,70.90
2023-04-07T05:10:06.431Z,72.00
2023-04-07T05:12:42.966Z,72.10
2023-04-07T05:15:18.263Z,71.90
2023-04-07T05:17:55.658Z,72.40
2023-04-07T05:20:33.471Z,72.40
2023-04-07T05:23:08.594Z,72.70
2023-04-07T05:25:45.942Z,73.00
2023-04-07T05:28:20.501Z,74.00
2023-04-07T05:30:55.596Z,74.30
2023-04-07T05:33:34.580Z,74.10
2023-04-07T05:36:10.411Z,74.30
2023-04-07T05:38:48.454Z,74.60
2023-04-07T05:41:26.594Z,74.80
2023-04-07T05:44:01.506Z,75.00
2023-04-07T05:46:40.050Z,75.60
2023-04-07T05:49:19.955Z,76.30
2023-04-07T05:52:02.141Z,76.20
2023-04-07T05:54:36.974Z,76.70
2023-04-07T05:57:14.184Z,76.70
2023-04-07T05:59:51.523Z,76.60
2023-04-07T06:02:25.590Z,76.70
2023-04-07T06:05:01.399Z,77.30
2023-04-07T06:07:35.933Z,77.50
2023-04-07T06:10:11.652Z,77.30
2023-04-07T06:12:47.596Z,77.00
2023-04-07T06:15:21.491Z,76.80
2023-04-07T06:17:56.026Z,76.70
2023-04-07T06:20:31.986Z,76.70
2023-04-07T06:23:05.853Z,76.90
2023-04-07T06:25:40.499Z,77.60
2023-04-07T06:28:16.607Z,78.10
2023-04-07T06:30:51.597Z,78.00
2023-04-07T06:33:27.424Z,77.90
2023-04-07T06:36:01.363Z,77.70
2023-04-07T06:38:35.812Z,77.40
2023-04-07T06:41:14.045Z,77.30
2023-04-07T06:43:53.000Z,77.40
2023-04-07T06:46:28.188Z,77.70
2023-04-07T06:49:02.322Z,78.00
2023-04-07T06:51:37.053Z,78.30
2023-04-07T06:54:14.762Z,78.30
2023-04-07T06:56:49.753Z,78.50
2023-04-07T06:59:26.213Z,78.70
2023-04-07T07:02:00.605Z,78.70
2023-04-07T07:04:34.747Z,78.90
2023-04-07T07:07:08.970Z,78.90
2023-04-07T07:09:43.096Z,78.80
2023-04-07T07:12:19.599Z,79.20
2023-04-07T07:14:55.366Z,79.20
2023-04-07T07:17:29.208Z,79.00
2023-04-07T07:20:03.440Z,78.80
2023-04-07T07:22:37.592Z,78.70
2023-04-07T07:25:11.736Z,78.40
2023-04-07T07:27:46.522Z,77.70
2023-04-07T07:30:22.548Z,76.90
2023-04-07T07:32:57.400Z,75.40
2023-04-07T07:35:31.778Z,75.30
2023-04-07T07:38:05.872Z,74.90
2023-04-07T07:40:40.028Z,74.40
2023-04-07T07:43:15.095Z,73.80
2023-04-07T07:45:50.716Z,73.60
2023-04-07T07:48:24.412Z,72.40
2023-04-07T07:50:58.620Z,72.10
2023-04-07T07:53:33.172Z,72.00
2023-04-07T07:56:07.012Z,71.60
2023-04-07T07:58:41.582Z,71.40
2023-04-07T08:01:17.566Z,71.40
2023-04-07T08:03:52.437Z,71.30
2023-04-07T08:06:26.784Z,71.50
2023-04-07T08:09:00.495Z,71.70
2023-04-07T08:11:34.840Z,71.70
2023-04-07T08:14:10.014Z,71.70
2023-04-07T08:16:45.901Z,72.10
2023-04-07T08:19:19.774Z,72.20
2023-04-07T08:21:54.312Z,72.00
2023-04-07T08:24:28.665Z,72.10
2023-04-07T08:27:03.104Z,72.40
2023-04-07T08:29:38.028Z,72.40
2023-04-07T08:32:16.200Z,72.00
2023-04-07T08:34:50.975Z,72.30
2023-04-07T08:37:25.043Z,72.50
2023-04-07T08:39:59.143Z,72.20
2023-04-07T08:42:33.891Z,72.30
2023-04-07T08:45:09.926Z,72.10
2023-04-07T08:47:45.953Z,71.80
2023-04-07T08:50:21.199Z,71.80
2023-04-07T08:52:59.387Z,72.10
2023-04-07T08:55:34.354Z,72.30
2023-04-07T08:58:08.490Z,71.80
2023-04-07T09:00:44.897Z,71.80
2023-04-07T09:03:21.569Z,72.20
2023-04-07T09:05:58.081Z,72.10
2023-04-07T09:08:32.223Z,72.20
2023-04-07T09:11:07.403Z,72.10
2023-04-07T09:13:41.779Z,72.40
2023-04-07T09:16:17.730Z,72.50
2023-04-07T09:18:53.755Z,72.90
2023-04-07T09:21:28.809Z,73.20
2023-04-07T09:24:04.724Z,72.90
2023-04-07T09:26:39.533Z,73.20
2023-04-07T09:29:13.737Z,73.40
2023-04-07T09:31:49.354Z,73.20
2023-04-07T09:34:32.724Z,73.30
2023-04-07T09:37:07.426Z,73.40
2023-04-07T09:39:53.729Z,73.90
2023-04-07T09:42:29.858Z,74.00
2023-04-07T09:45:05.453Z,74.10
2023-04-07T09:47:41.109Z,74.20
2023-04-07T09:50:17.180Z,74.20
2023-04-07T09:52:55.526Z,74.00
2023-04-07T09:55:30.898Z,74.10
2023-04-07T09:58:06.718Z,74.10
2023-04-07T10:00:41.158Z,74.10
2023-04-07T10:03:15.613Z,74.30
2023-04-07T10:05:52.348Z,74.40
2023-04-07T10:08:27.526Z,74.50
2023-04-07T10:11:02.440Z,74.50
2023-04-07T10:13:37.056Z,74.70
2023-04-07T10:16:12.253Z,74.90
2023-04-07T10:18:48.277Z,74.80
2023-04-07T10:21:23.929Z,74.80
2023-04-07T10:24:12.805Z,74.80
2023-04-07T10:27:13.765Z,74.60
2023-04-07T10:29:51.551Z,74.90
2023-04-07T10:32:25.625Z,74.90
2023-04-07T10:35:02.763Z,75.00
2023-04-07T10:37:39.451Z,75.00
2023-04-07T10:40:31.661Z,74.50
2023-04-07T10:43:05.847Z,71.20
2023-04-07T10:46:01.477Z,67.30
2023-04-07T10:48:37.298Z,67.00
2023-04-07T10:51:22.083Z,66.70
2023-04-07T10:54:23.186Z,68.10
2023-04-07T10:57:20.066Z,68.10
2023-04-07T11:00:08.477Z,69.10
2023-04-07T11:02:44.625Z,71.10
2023-04-07T11:05:26.292Z,71.80
2023-04-07T11:08:04.181Z,73.30
2023-04-07T11:10:38.394Z,73.70
2023-04-07T11:13:26.936Z,74.80
2023-04-07T11:16:02.157Z,74.50
2023-04-07T11:18:35.835Z,74.80
2023-04-07T11:21:14.064Z,75.10
2023-04-07T11:23:49.206Z,75.60
2023-04-07T11:26:26.409Z,75.90
2023-04-07T11:29:02.663Z,75.80
2023-04-07T11:31:36.880Z,75.90
2023-04-07T11:34:11.379Z,75.90
2023-04-07T11:36:46.175Z,76.00
2023-04-07T11:39:24.248Z,76.30
2023-04-07T11:41:58.369Z,76.50
2023-04-07T11:44:34.817Z,76.60
2023-04-07T11:47:09.041Z,76.60
2023-04-07T11:49:49.782Z,76.40
2023-04-07T11:52:24.617Z,76.50
2023-04-07T11:55:01.017Z,76.40
2023-04-07T11:57:35.344Z,76.30
2023-04-07T12:00:15.447Z,76.20
2023-04-07T12:02:49.752Z,76.10
2023-04-07T12:05:24.319Z,76.20
2023-04-07T12:07:59.812Z,76.10
2023-04-07T12:10:36.810Z,75.90
2023-04-07T12:13:12.487Z,76.10
2023-04-07T12:15:57.895Z,75.90
2023-04-07T12:18:33.607Z,75.70
2023-04-07T12:21:07.593Z,75.70
2023-04-07T12:23:46.628Z,75.50
2023-04-07T12:26:22.959Z,75.60
2023-04-07T12:28:57.341Z,75.00
2023-04-07T12:31:33.470Z,74.90
2023-04-07T12:34:08.234Z,75.00
2023-04-07T12:36:42.683Z,74.80
2023-04-07T12:39:18.418Z,74.90
2023-04-07T12:41:54.845Z,74.80
2023-04-07T12:44:28.851Z,74.70
2023-04-07T12:47:05.149Z,75.10
2023-04-07T12:49:39.288Z,75.20
2023-04-07T12:52:13.743Z,75.20
2023-04-07T12:54:48.425Z,74.80
2023-04-07T12:57:22.975Z,74.90
2023-04-07T12:59:57.297Z,74.90
2023-04-07T13:02:34.379Z,74.80
2023-04-07T13:05:08.754Z,75.10
2023-04-07T13:07:43.141Z,75.20
2023-04-07T13:10:17.599Z,75.00
2023-04-07T13:12:52.655Z,75.10
2023-04-07T13:15:26.442Z,74.80
2023-04-07T13:18:02.575Z,74.70
2023-04-07T13:20:37.590Z,74.50
2023-04-07T13:28:22.598Z,75.60
2023-04-07T13:30:56.917Z,74.80
2023-04-07T13:33:32.763Z,74.90
2023-04-07T13:36:07.395Z,74.70
2023-04-07T13:38:43.963Z,74.80
2023-04-07T13:41:18.108Z,74.50
2023-04-07T13:43:53.405Z,74.50
2023-04-07T13:46:29.250Z,74.40
2023-04-07T13:49:06.161Z,74.60
2023-04-07T13:51:40.474Z,74.20
2023-04-07T13:54:14.564Z,74.20
2023-04-07T13:56:49.871Z,74.30
2023-04-07T13:59:25.207Z,74.30
2023-04-07T14:01:59.646Z,74.30
2023-04-07T14:04:35.895Z,74.30
2023-04-07T14:07:10.117Z,74.30
2023-04-07T14:09:46.512Z,74.20
2023-04-07T14:12:23.126Z,74.00
2023-04-07T14:14:58.150Z,73.90
2023-04-07T14:17:32.004Z,73.90
2023-04-07T14:20:08.796Z,73.70
2023-04-07T14:22:42.870Z,73.60
2023-04-07T14:25:16.771Z,73.90
2023-04-07T14:27:50.978Z,73.80
2023-04-07T14:30:26.445Z,73.40
2023-04-07T14:33:01.958Z,73.30
2023-04-07T14:35:40.984Z,73.20
2023-04-07T14:38:14.957Z,73.00
2023-04-07T14:40:49.310Z,73.20
2023-04-07T14:43:23.709Z,73.20
2023-04-07T14:45:59.422Z,73.00
2023-04-07T14:48:34.586Z,73.30
2023-04-07T14:51:15.592Z,73.00
2023-04-07T14:53:51.062Z,73.20
2023-04-07T14:56:25.300Z,73.40
2023-04-07T14:58:59.084Z,73.30
2023-04-07T15:01:34.853Z,73.40
2023-04-07T15:04:09.002Z,73.50
2023-04-07T15:06:47.639Z,73.30
2023-04-07T15:09:21.907Z,73.50
2023-04-07T15:11:57.986Z,73.50
2023-04-07T15:14:32.357Z,73.70
2023-04-07T15:17:06.628Z,73.90
2023-04-07T15:19:43.692Z,74.10
2023-04-07T15:22:20.281Z,74.20
2023-04-07T15:24:54.124Z,74.30
2023-04-07T15:27:28.535Z,74.60
2023-04-07T15:30:02.525Z,75.00
2023-04-07T15:32:38.300Z,74.80
2023-04-07T15:35:12.726Z,74.80
2023-04-07T15:37:48.966Z,74.80
2023-04-07T15:40:22.877Z,75.00
2023-04-07T15:42:57.800Z,74.80
2023-04-07T15:45:31.726Z,75.10
2023-04-07T15:48:06.984Z,75.30
2023-04-07T15:50:40.850Z,75.10
2023-04-07T15:53:17.874Z,75.20
2023-04-07T15:55:51.905Z,75.20
2023-04-07T15:58:25.785Z,75.30
2023-04-07T16:00:59.917Z,75.50
2023-04-07T16:03:35.821Z,75.60
2023-04-07T16:06:10.589Z,75.80
2023-04-07T16:08:46.834Z,75.90
2023-04-07T16:11:20.829Z,76.00
2023-04-07T16:13:56.134Z,76.20
2023-04-07T16:16:30.162Z,76.20
2023-04-07T16:19:04.822Z,76.50
2023-04-07T16:21:38.768Z,76.40
2023-04-07T16:24:15.913Z,76.30
2023-04-07T16:26:52.080Z,76.20
2023-04-07T16:29:26.231Z,76.30
2023-04-07T16:32:00.207Z,76.20
2023-04-07T16:34:35.876Z,76.20
2023-04-07T16:37:09.718Z,76.30
2023-04-07T16:39:45.807Z,75.90
2023-04-07T16:42:19.773Z,76.00
2023-04-07T16:44:55.063Z,76.00
2023-04-07T16:47:29.059Z,75.40
2023-04-07T16:50:04.216Z,75.50
2023-04-07T16:52:38.097Z,75.40
2023-04-07T16:55:15.948Z,75.40
2023-04-07T16:57:50.131Z,75.20
2023-04-07T17:00:24.314Z,74.70
2023-04-07T17:02:58.439Z,74.70
2023-04-07T17:05:34.488Z,75.00
2023-04-07T17:08:08.691Z,74.90
2023-04-07T17:10:44.984Z,73.90
2023-04-07T17:13:18.904Z,72.40
2023-04-07T17:15:53.956Z,73.20
2023-04-07T17:18:28.031Z,73.80
2023-04-07T17:21:03.984Z,71.60
2023-04-07T17:23:42.500Z,72.40
2023-04-07T17:26:19.619Z,72.00
2023-04-07T17:28:53.697Z,71.10
2023-04-07T17:31:27.842Z,71.60
2023-04-07T17:34:01.740Z,71.10
2023-04-07T17:36:37.504Z,71.30
2023-04-07T17:39:11.386Z,70.10
2023-04-07T17:41:48.462Z,69.60
2023-04-07T17:44:22.515Z,70.10
2023-04-07T17:46:57.863Z,69.10
2023-04-07T17:49:31.703Z,69.80
2023-04-07T17:52:06.627Z,69.90
2023-04-07T17:54:40.772Z,69.80
2023-04-07T17:57:18.071Z,69.90
2023-04-07T17:59:52.609Z,67.30
2023-04-07T18:02:28.149Z,68.40
2023-04-07T18:05:03.174Z,68.30
2023-04-07T18:07:39.219Z,67.70
2023-04-07T18:10:13.689Z,67.10
2023-04-07T18:12:50.051Z,67.10
2023-04-07T18:15:24.076Z,67.20
2023-04-07T18:17:59.357Z,66.20
2023-04-07T18:20:33.378Z,66.60
2023-04-07T18:23:07.746Z,68.00
2023-04-07T18:25:42.009Z,67.40
2023-04-07T18:28:18.840Z,67.90
2023-04-07T18:30:52.896Z,68.80
2023-04-07T18:33:26.932Z,68.50
2023-04-07T18:36:01.092Z,67.30
2023-04-07T18:38:36.731Z,66.10
2023-04-07T18:41:11.152Z,65.80
2023-04-07T18:43:49.083Z,66.00
2023-04-07T18:46:23.197Z,65.50
2023-04-07T18:48:58.620Z,65.30
2023-04-07T18:51:32.821Z,65.30
2023-04-07T18:54:07.469Z,65.70
2023-04-07T18:56:41.735Z,65.80
2023-04-07T18:59:19.092Z,64.90
2023-04-07T19:01:53.058Z,66.00
2023-04-07T19:04:28.012Z,66.60
2023-04-07T19:07:01.963Z,66.80
2023-04-07T19:09:39.444Z,66.60
2023-04-07T19:12:13.376Z,67.20
2023-04-07T19:14:49.239Z,66.00
2023-04-07T19:17:23.097Z,66.70
2023-04-07T19:19:58.072Z,65.90
2023-04-07T19:22:31.901Z,65.70
2023-04-07T19:25:05.809Z,66.00
2023-04-07T19:27:41.110Z,65.40
2023-04-07T19:30:17.984Z,66.60
2023-04-07T19:32:51.924Z,65.70
2023-04-07T19:35:25.634Z,65.60
2023-04-07T19:37:59.477Z,66.20
2023-04-07T19:40:35.152Z,65.50
2023-04-07T19:43:09.041Z,65.20
2023-04-07T19:45:44.934Z,64.80
2023-04-07T19:48:19.049Z,64.20
2023-04-07T19:50:54.237Z,65.30
2023-04-07T19:53:30.045Z,65.60
2023-04-07T19:56:06.286Z,65.40
2023-04-07T19:58:40.500Z,65.70
2023-04-07T20:01:22.426Z,66.50
2023-04-07T20:03:57.509Z,66.50
2023-04-07T20:06:32.954Z,66.40
2023-04-07T20:09:09.084Z,66.30
2023-04-07T20:11:44.728Z,65.80
2023-04-07T20:14:18.429Z,66.20
2023-04-07T20:16:55.415Z,66.80
2023-04-07T20:19:29.380Z,66.90
2023-04-07T20:22:03.672Z,66.60
2023-04-07T20:24:39.561Z,66.30
2023-04-07T20:27:13.899Z,66.20
2023-04-07T20:29:47.882Z,66.60
2023-04-07T20:32:24.594Z,66.80
2023-04-07T20:34:58.758Z,66.70
2023-04-07T20:37:32.975Z,66.00
2023-04-07T20:40:06.959Z,65.20
2023-04-07T20:42:41.649Z,65.40
2023-04-07T20:45:15.567Z,64.20
2023-04-07T20:47:51.744Z,64.40
2023-04-07T20:50:25.888Z,63.60
2023-04-07T20:53:00.764Z,64.00
2023-04-07T20:55:34.903Z,64.70
2023-04-07T20:58:09.697Z,63.90
2023-04-07T21:00:43.743Z,64.40
2023-04-07T21:03:21.063Z,64.20
2023-04-07T21:05:55.168Z,63.90
2023-04-07T21:08:29.456Z,64.70
2023-04-07T21:11:03.556Z,64.50
2023-04-07T21:13:38.945Z,64.00
2023-04-07T21:16:13.089Z,64.20
2023-04-07T21:18:49.215Z,65.30
2023-04-07T21:21:23.074Z,65.60
2023-04-07T21:23:57.852Z,66.10
2023-04-07T21:26:31.754Z,66.80
2023-04-07T21:29:05.900Z,65.90
2023-04-07T21:31:39.809Z,65.70
2023-04-07T21:34:16.643Z,66.50
2023-04-07T21:36:50.571Z,66.40
2023-04-07T21:39:24.787Z,66.30
2023-04-07T21:41:59.068Z,66.70
2023-04-07T21:44:34.680Z,66.00
2023-04-07T21:47:10.183Z,66.30
2023-04-07T21:49:46.209Z,66.00
2023-04-07T21:52:21.060Z,65.10
2023-04-07T21:54:55.915Z,64.80
2023-04-07T21:57:30.091Z,64.00
2023-04-07T22:00:04.709Z,63.20
2023-04-07T22:02:48.583Z,61.70
2023-04-07T22:05:26.317Z,60.50
2023-04-07T22:08:00.221Z,61.00
2023-04-07T22:10:34.120Z,60.30
2023-04-07T22:13:08.422Z,59.90
2023-04-07T22:15:44.172Z,58.40
2023-04-07T22:18:19.719Z,59.30
2023-04-07T22:20:57.003Z,58.70
2023-04-07T22:23:31.451Z,57.40
2023-04-07T22:26:06.325Z,57.80
2023-04-07T22:28:40.601Z,57.10
2023-04-07T22:31:14.945Z,57.00
2023-04-07T22:33:49.041Z,57.30
2023-04-07T22:36:25.627Z,57.10
2023-04-07T22:39:00.694Z,55.80
2023-04-07T22:41:34.535Z,55.50
2023-04-07T22:44:08.471Z,55.80
2023-04-07T22:46:43.652Z,55.70
2023-04-07T22:49:19.240Z,54.60
2023-04-07T22:51:54.976Z,53.60
2023-04-07T22:54:28.661Z,53.50
2023-04-07T22:57:03.739Z,53.50
2023-04-07T22:59:37.396Z,52.20
2023-04-07T23:02:11.787Z,53.40
2023-04-07T23:04:45.641Z,53.60
2023-04-07T23:07:21.800Z,53.10
2023-04-07T23:09:55.595Z,51.90
2023-04-07T23:12:29.227Z,52.30
2023-04-07T23:15:03.041Z,53.20
2023-04-07T23:17:38.781Z,51.10
2023-04-07T23:20:13.409Z,51.10
2023-04-07T23:22:49.526Z,51.40
2023-04-07T23:25:23.712Z,51.60
2023-04-07T23:27:57.853Z,50.40
2023-04-07T23:30:31.985Z,50.60
2023-04-07T23:33:06.421Z,50.00
2023-04-07T23:35:40.659Z,50.30
2023-04-07T23:38:16.982Z,49.50
2023-04-07T23:40:51.266Z,49.90
2023-04-07T23:43:25.033Z,49.80
2023-04-07T23:45:59.674Z,49.10
